sensor_id;sensor_type;location;lat;lon;timestamp;P1;durP1;ratioP1;P2;durP2;ratioP2
21334;SDS011;10826;52.536;13.432;2023-03-31T00:00:29;11.37;;;3.40;;
21334;SDS011;10826;52.536;13.432;2023-03-31T00:03:17;5.20;;;3.60;;
21334;SDS011;10826;52.536;13.432;2023-03-31T00:06:08;8.20;;;3.40;;
21334;SDS011;10826;52.536;13.432;2023-03-31T00:09:03;6.43;;;3.23;;
21334;SDS011;10826;52.536;13.432;2023-03-31T00:11:50;8.80;;;3.47;;
21334;SDS011;10826;52.536;13.432;2023-03-31T00:14:37;13.90;;;4.00;;
21334;SDS011;10826;52.536;13.432;2023-03-31T00:17:23;4.70;;;3.30;;
21334;SDS011;10826;52.536;13.432;2023-03-31T00:20:22;6.23;;;2.73;;
21334;SDS011;10826;52.536;13.432;2023-03-31T00:23:11;4.43;;;3.30;;
21334;SDS011;10826;52.536;13.432;2023-03-31T00:25:58;5.40;;;2.63;;
21334;SDS011;10826;52.536;13.432;2023-03-31T00:28:45;4.83;;;2.80;;
21334;SDS011;10826;52.536;13.432;2023-03-31T00:31:31;6.23;;;2.73;;
21334;SDS011;10826;52.536;13.432;2023-03-31T00:34:18;5.50;;;2.80;;
21334;SDS011;10826;52.536;13.432;2023-03-31T00:37:04;4.23;;;2.67;;
21334;SDS011;10826;52.536;13.432;2023-03-31T00:39:50;6.90;;;2.60;;
21334;SDS011;10826;52.536;13.432;2023-03-31T00:42:42;4.17;;;2.80;;
21334;SDS011;10826;52.536;13.432;2023-03-31T00:45:29;3.33;;;2.20;;
21334;SDS011;10826;52.536;13.432;2023-03-31T00:48:16;5.40;;;2.83;;
21334;SDS011;10826;52.536;13.432;2023-03-31T00:51:04;12.33;;;2.90;;
21334;SDS011;10826;52.536;13.432;2023-03-31T00:53:53;4.73;;;2.70;;
21334;SDS011;10826;52.536;13.432;2023-03-31T00:56:49;7.57;;;2.77;;
21334;SDS011;10826;52.536;13.432;2023-03-31T00:59:41;2.90;;;2.30;;
21334;SDS011;10826;52.536;13.432;2023-03-31T01:02:32;9.03;;;2.60;;
21334;SDS011;10826;52.536;13.432;2023-03-31T01:05:18;6.63;;;2.60;;
21334;SDS011;10826;52.536;13.432;2023-03-31T01:08:10;4.77;;;2.60;;
21334;SDS011;10826;52.536;13.432;2023-03-31T01:11:02;6.87;;;2.30;;
21334;SDS011;10826;52.536;13.432;2023-03-31T01:14:00;3.73;;;2.40;;
21334;SDS011;10826;52.536;13.432;2023-03-31T01:16:48;4.80;;;2.67;;
21334;SDS011;10826;52.536;13.432;2023-03-31T01:19:49;4.50;;;2.60;;
21334;SDS011;10826;52.536;13.432;2023-03-31T01:26:53;3.63;;;2.53;;
21334;SDS011;10826;52.536;13.432;2023-03-31T01:36:31;10.73;;;3.17;;
21334;SDS011;10826;52.536;13.432;2023-03-31T01:48:43;6.80;;;2.57;;
21334;SDS011;10826;52.536;13.432;2023-03-31T01:51:19;3.80;;;2.30;;
21334;SDS011;10826;52.536;13.432;2023-03-31T01:54:36;6.43;;;2.50;;
21334;SDS011;10826;52.536;13.432;2023-03-31T01:57:40;7.27;;;2.10;;
21334;SDS011;10826;52.536;13.432;2023-03-31T02:04:23;2.77;;;1.80;;
21334;SDS011;10826;52.536;13.432;2023-03-31T02:07:26;4.90;;;2.27;;
21334;SDS011;10826;52.536;13.432;2023-03-31T02:10:21;5.43;;;2.10;;
21334;SDS011;10826;52.536;13.432;2023-03-31T02:13:11;7.07;;;2.57;;
21334;SDS011;10826;52.536;13.432;2023-03-31T02:16:03;4.83;;;1.80;;
21334;SDS011;10826;52.536;13.432;2023-03-31T02:19:00;6.53;;;2.07;;
21334;SDS011;10826;52.536;13.432;2023-03-31T02:21:50;5.80;;;2.00;;
21334;SDS011;10826;52.536;13.432;2023-03-31T02:24:42;7.83;;;2.50;;
21334;SDS011;10826;52.536;13.432;2023-03-31T02:27:51;3.87;;;2.37;;
21334;SDS011;10826;52.536;13.432;2023-03-31T02:33:45;3.43;;;2.00;;
21334;SDS011;10826;52.536;13.432;2023-03-31T02:36:33;7.10;;;2.47;;
21334;SDS011;10826;52.536;13.432;2023-03-31T02:39:24;5.87;;;2.00;;
21334;SDS011;10826;52.536;13.432;2023-03-31T02:42:17;4.50;;;2.43;;
21334;SDS011;10826;52.536;13.432;2023-03-31T02:48:35;4.83;;;2.30;;
21334;SDS011;10826;52.536;13.432;2023-03-31T02:51:52;5.23;;;2.10;;
21334;SDS011;10826;52.536;13.432;2023-03-31T03:18:25;5.80;;;2.27;;
21334;SDS011;10826;52.536;13.432;2023-03-31T03:21:14;7.07;;;1.93;;
21334;SDS011;10826;52.536;13.432;2023-03-31T03:24:00;6.20;;;2.37;;
21334;SDS011;10826;52.536;13.432;2023-03-31T03:26:46;7.40;;;2.20;;
21334;SDS011;10826;52.536;13.432;2023-03-31T03:29:32;4.40;;;2.07;;
21334;SDS011;10826;52.536;13.432;2023-03-31T03:32:18;7.77;;;2.03;;
21334;SDS011;10826;52.536;13.432;2023-03-31T03:35:04;3.87;;;2.00;;
21334;SDS011;10826;52.536;13.432;2023-03-31T03:37:51;4.30;;;1.80;;
21334;SDS011;10826;52.536;13.432;2023-03-31T03:40:37;4.87;;;1.67;;
21334;SDS011;10826;52.536;13.432;2023-03-31T03:43:25;5.70;;;1.90;;
21334;SDS011;10826;52.536;13.432;2023-03-31T03:46:19;5.63;;;1.80;;
21334;SDS011;10826;52.536;13.432;2023-03-31T03:49:05;3.70;;;2.00;;
21334;SDS011;10826;52.536;13.432;2023-03-31T03:51:51;2.93;;;1.83;;
21334;SDS011;10826;52.536;13.432;2023-03-31T03:54:37;4.27;;;2.27;;
21334;SDS011;10826;52.536;13.432;2023-03-31T03:57:24;6.53;;;2.00;;
21334;SDS011;10826;52.536;13.432;2023-03-31T04:00:10;4.40;;;2.20;;
21334;SDS011;10826;52.536;13.432;2023-03-31T04:02:57;7.70;;;1.80;;
21334;SDS011;10826;52.536;13.432;2023-03-31T04:05:43;4.97;;;2.00;;
21334;SDS011;10826;52.536;13.432;2023-03-31T04:08:29;4.43;;;1.70;;
21334;SDS011;10826;52.536;13.432;2023-03-31T04:11:15;6.07;;;2.13;;
21334;SDS011;10826;52.536;13.432;2023-03-31T04:14:03;2.97;;;2.03;;
21334;SDS011;10826;52.536;13.432;2023-03-31T04:16:49;2.73;;;2.10;;
21334;SDS011;10826;52.536;13.432;2023-03-31T04:19:35;6.30;;;2.50;;
21334;SDS011;10826;52.536;13.432;2023-03-31T04:22:22;7.07;;;1.70;;
21334;SDS011;10826;52.536;13.432;2023-03-31T04:25:13;2.30;;;2.10;;
21334;SDS011;10826;52.536;13.432;2023-03-31T04:28:00;6.37;;;1.90;;
21334;SDS011;10826;52.536;13.432;2023-03-31T04:30:46;2.47;;;1.37;;
21334;SDS011;10826;52.536;13.432;2023-03-31T04:33:37;5.43;;;1.60;;
21334;SDS011;10826;52.536;13.432;2023-03-31T04:36:23;4.83;;;2.00;;
21334;SDS011;10826;52.536;13.432;2023-03-31T04:39:09;6.90;;;2.40;;
21334;SDS011;10826;52.536;13.432;2023-03-31T04:41:56;4.23;;;1.97;;
21334;SDS011;10826;52.536;13.432;2023-03-31T04:44:44;6.87;;;2.07;;
21334;SDS011;10826;52.536;13.432;2023-03-31T04:47:30;6.63;;;2.37;;
21334;SDS011;10826;52.536;13.432;2023-03-31T04:50:16;6.97;;;1.80;;
21334;SDS011;10826;52.536;13.432;2023-03-31T04:53:02;3.00;;;1.80;;
21334;SDS011;10826;52.536;13.432;2023-03-31T04:55:49;6.07;;;2.53;;
21334;SDS011;10826;52.536;13.432;2023-03-31T04:58:35;4.60;;;1.83;;
21334;SDS011;10826;52.536;13.432;2023-03-31T05:01:21;6.60;;;1.97;;
21334;SDS011;10826;52.536;13.432;2023-03-31T05:04:11;3.37;;;1.93;;
21334;SDS011;10826;52.536;13.432;2023-03-31T05:07:01;4.83;;;1.67;;
21334;SDS011;10826;52.536;13.432;2023-03-31T05:09:52;5.00;;;1.80;;
21334;SDS011;10826;52.536;13.432;2023-03-31T05:12:48;3.53;;;1.90;;
21334;SDS011;10826;52.536;13.432;2023-03-31T05:15:37;4.43;;;1.80;;
21334;SDS011;10826;52.536;13.432;2023-03-31T05:18:24;3.10;;;1.67;;
21334;SDS011;10826;52.536;13.432;2023-03-31T05:21:14;6.40;;;2.03;;
21334;SDS011;10826;52.536;13.432;2023-03-31T05:24:04;3.87;;;1.97;;
21334;SDS011;10826;52.536;13.432;2023-03-31T05:26:50;3.77;;;1.90;;
21334;SDS011;10826;52.536;13.432;2023-03-31T05:29:38;4.13;;;2.03;;
21334;SDS011;10826;52.536;13.432;2023-03-31T05:32:30;7.07;;;2.07;;
21334;SDS011;10826;52.536;13.432;2023-03-31T05:35:16;4.20;;;1.80;;
21334;SDS011;10826;52.536;13.432;2023-03-31T05:38:06;3.40;;;2.03;;
21334;SDS011;10826;52.536;13.432;2023-03-31T05:40:52;7.40;;;2.53;;
21334;SDS011;10826;52.536;13.432;2023-03-31T05:43:39;3.90;;;2.00;;
21334;SDS011;10826;52.536;13.432;2023-03-31T05:46:25;4.93;;;2.17;;
21334;SDS011;10826;52.536;13.432;2023-03-31T05:49:16;3.70;;;2.27;;
21334;SDS011;10826;52.536;13.432;2023-03-31T05:52:03;4.70;;;2.47;;
21334;SDS011;10826;52.536;13.432;2023-03-31T05:54:51;4.47;;;2.60;;
21334;SDS011;10826;52.536;13.432;2023-03-31T05:57:36;4.13;;;2.50;;
21334;SDS011;10826;52.536;13.432;2023-03-31T06:00:31;2.17;;;1.97;;
21334;SDS011;10826;52.536;13.432;2023-03-31T06:03:17;3.97;;;2.20;;
21334;SDS011;10826;52.536;13.432;2023-03-31T06:06:03;4.20;;;2.50;;
21334;SDS011;10826;52.536;13.432;2023-03-31T06:08:54;4.53;;;2.07;;
21334;SDS011;10826;52.536;13.432;2023-03-31T06:11:40;2.90;;;1.60;;
21334;SDS011;10826;52.536;13.432;2023-03-31T06:14:26;5.80;;;2.40;;
21334;SDS011;10826;52.536;13.432;2023-03-31T06:17:12;4.53;;;2.17;;
21334;SDS011;10826;52.536;13.432;2023-03-31T06:19:58;5.30;;;2.40;;
21334;SDS011;10826;52.536;13.432;2023-03-31T06:22:44;2.13;;;1.80;;
21334;SDS011;10826;52.536;13.432;2023-03-31T06:25:30;2.77;;;1.50;;
21334;SDS011;10826;52.536;13.432;2023-03-31T06:28:22;4.13;;;1.73;;
21334;SDS011;10826;52.536;13.432;2023-03-31T06:31:09;3.23;;;1.70;;
21334;SDS011;10826;52.536;13.432;2023-03-31T06:34:04;6.00;;;1.90;;
21334;SDS011;10826;52.536;13.432;2023-03-31T06:36:51;4.77;;;1.63;;
21334;SDS011;10826;52.536;13.432;2023-03-31T06:39:37;4.93;;;1.80;;
21334;SDS011;10826;52.536;13.432;2023-03-31T06:42:23;2.90;;;2.00;;
21334;SDS011;10826;52.536;13.432;2023-03-31T06:45:13;5.13;;;1.90;;
21334;SDS011;10826;52.536;13.432;2023-03-31T06:47:59;2.43;;;1.60;;
21334;SDS011;10826;52.536;13.432;2023-03-31T06:50:46;4.17;;;2.00;;
21334;SDS011;10826;52.536;13.432;2023-03-31T06:53:33;4.53;;;1.87;;
21334;SDS011;10826;52.536;13.432;2023-03-31T06:56:22;9.23;;;2.13;;
21334;SDS011;10826;52.536;13.432;2023-03-31T06:59:08;3.93;;;1.83;;
21334;SDS011;10826;52.536;13.432;2023-03-31T07:01:53;3.17;;;1.80;;
21334;SDS011;10826;52.536;13.432;2023-03-31T07:04:40;4.10;;;1.83;;
21334;SDS011;10826;52.536;13.432;2023-03-31T07:07:29;6.37;;;2.43;;
21334;SDS011;10826;52.536;13.432;2023-03-31T07:10:17;2.73;;;2.00;;
21334;SDS011;10826;52.536;13.432;2023-03-31T07:13:06;3.67;;;1.93;;
21334;SDS011;10826;52.536;13.432;2023-03-31T07:15:55;5.60;;;2.23;;
21334;SDS011;10826;52.536;13.432;2023-03-31T07:18:41;3.13;;;2.03;;
21334;SDS011;10826;52.536;13.432;2023-03-31T07:21:27;3.60;;;2.20;;
21334;SDS011;10826;52.536;13.432;2023-03-31T07:24:13;4.37;;;2.30;;
21334;SDS011;10826;52.536;13.432;2023-03-31T07:27:00;5.67;;;1.90;;
21334;SDS011;10826;52.536;13.432;2023-03-31T07:29:46;4.70;;;2.37;;
21334;SDS011;10826;52.536;13.432;2023-03-31T07:32:32;2.83;;;1.93;;
21334;SDS011;10826;52.536;13.432;2023-03-31T07:35:18;5.17;;;2.27;;
21334;SDS011;10826;52.536;13.432;2023-03-31T07:38:06;2.63;;;1.73;;
21334;SDS011;10826;52.536;13.432;2023-03-31T07:40:56;5.83;;;1.70;;
21334;SDS011;10826;52.536;13.432;2023-03-31T07:43:44;4.93;;;2.10;;
21334;SDS011;10826;52.536;13.432;2023-03-31T07:46:31;9.47;;;2.27;;
21334;SDS011;10826;52.536;13.432;2023-03-31T07:49:17;5.60;;;1.73;;
21334;SDS011;10826;52.536;13.432;2023-03-31T07:52:03;4.47;;;1.70;;
21334;SDS011;10826;52.536;13.432;2023-03-31T07:54:49;5.87;;;2.50;;
21334;SDS011;10826;52.536;13.432;2023-03-31T07:57:35;3.33;;;1.80;;
21334;SDS011;10826;52.536;13.432;2023-03-31T08:00:22;5.07;;;2.07;;
21334;SDS011;10826;52.536;13.432;2023-03-31T08:03:08;4.40;;;2.57;;
21334;SDS011;10826;52.536;13.432;2023-03-31T08:05:56;3.10;;;2.00;;
21334;SDS011;10826;52.536;13.432;2023-03-31T08:08:49;3.87;;;2.17;;
21334;SDS011;10826;52.536;13.432;2023-03-31T08:11:35;5.93;;;2.10;;
21334;SDS011;10826;52.536;13.432;2023-03-31T08:14:21;3.67;;;1.93;;
21334;SDS011;10826;52.536;13.432;2023-03-31T08:17:08;4.63;;;2.20;;
21334;SDS011;10826;52.536;13.432;2023-03-31T08:20:02;3.50;;;1.80;;
21334;SDS011;10826;52.536;13.432;2023-03-31T08:22:54;7.37;;;2.57;;
21334;SDS011;10826;52.536;13.432;2023-03-31T08:25:40;5.17;;;1.93;;
21334;SDS011;10826;52.536;13.432;2023-03-31T08:28:26;5.00;;;1.93;;
21334;SDS011;10826;52.536;13.432;2023-03-31T08:31:12;5.47;;;1.90;;
21334;SDS011;10826;52.536;13.432;2023-03-31T08:34:00;7.30;;;1.90;;
21334;SDS011;10826;52.536;13.432;2023-03-31T08:36:47;3.43;;;1.80;;
21334;SDS011;10826;52.536;13.432;2023-03-31T08:39:33;5.47;;;2.50;;
21334;SDS011;10826;52.536;13.432;2023-03-31T08:42:35;6.63;;;2.50;;
21334;SDS011;10826;52.536;13.432;2023-03-31T08:45:35;5.90;;;2.13;;
21334;SDS011;10826;52.536;13.432;2023-03-31T08:48:26;6.60;;;2.10;;
21334;SDS011;10826;52.536;13.432;2023-03-31T08:51:30;5.03;;;1.90;;
21334;SDS011;10826;52.536;13.432;2023-03-31T08:57:28;6.10;;;2.47;;
21334;SDS011;10826;52.536;13.432;2023-03-31T09:01:00;3.93;;;2.10;;
21334;SDS011;10826;52.536;13.432;2023-03-31T09:26:22;3.33;;;1.70;;
21334;SDS011;10826;52.536;13.432;2023-03-31T09:32:24;3.63;;;2.27;;
21334;SDS011;10826;52.536;13.432;2023-03-31T09:35:18;8.17;;;2.60;;
21334;SDS011;10826;52.536;13.432;2023-03-31T09:38:13;7.57;;;2.20;;
21334;SDS011;10826;52.536;13.432;2023-03-31T09:41:00;6.03;;;2.57;;
21334;SDS011;10826;52.536;13.432;2023-03-31T09:43:48;2.70;;;1.80;;
21334;SDS011;10826;52.536;13.432;2023-03-31T09:46:36;4.73;;;2.23;;
21334;SDS011;10826;52.536;13.432;2023-03-31T09:49:25;3.60;;;2.10;;
21334;SDS011;10826;52.536;13.432;2023-03-31T09:52:31;6.10;;;2.10;;
21334;SDS011;10826;52.536;13.432;2023-03-31T09:55:38;6.57;;;2.37;;
21334;SDS011;10826;52.536;13.432;2023-03-31T09:58:42;5.20;;;1.93;;
21334;SDS011;10826;52.536;13.432;2023-03-31T10:01:33;7.20;;;2.37;;
21334;SDS011;10826;52.536;13.432;2023-03-31T10:04:24;4.03;;;2.30;;
21334;SDS011;10826;52.536;13.432;2023-03-31T10:07:18;3.60;;;1.60;;
21334;SDS011;10826;52.536;13.432;2023-03-31T10:10:08;5.13;;;2.30;;
21334;SDS011;10826;52.536;13.432;2023-03-31T10:13:16;4.70;;;1.90;;
21334;SDS011;10826;52.536;13.432;2023-03-31T10:16:09;5.73;;;2.17;;
21334;SDS011;10826;52.536;13.432;2023-03-31T10:19:12;7.00;;;2.23;;
21334;SDS011;10826;52.536;13.432;2023-03-31T10:22:26;5.27;;;1.90;;
21334;SDS011;10826;52.536;13.432;2023-03-31T10:25:17;5.90;;;2.20;;
21334;SDS011;10826;52.536;13.432;2023-03-31T10:28:16;5.70;;;2.03;;
21334;SDS011;10826;52.536;13.432;2023-03-31T10:31:04;5.50;;;1.87;;
21334;SDS011;10826;52.536;13.432;2023-03-31T10:33:58;6.10;;;1.90;;
21334;SDS011;10826;52.536;13.432;2023-03-31T10:36:53;8.67;;;2.53;;
21334;SDS011;10826;52.536;13.432;2023-03-31T10:39:40;6.37;;;1.77;;
21334;SDS011;10826;52.536;13.432;2023-03-31T10:42:31;3.07;;;1.83;;
21334;SDS011;10826;52.536;13.432;2023-03-31T10:45:28;3.77;;;1.83;;
21334;SDS011;10826;52.536;13.432;2023-03-31T10:54:15;4.80;;;2.00;;
21334;SDS011;10826;52.536;13.432;2023-03-31T10:57:01;5.43;;;2.33;;
21334;SDS011;10826;52.536;13.432;2023-03-31T11:06:49;5.30;;;2.17;;
21334;SDS011;10826;52.536;13.432;2023-03-31T11:13:21;6.80;;;2.50;;
21334;SDS011;10826;52.536;13.432;2023-03-31T11:19:55;4.67;;;2.70;;
21334;SDS011;10826;52.536;13.432;2023-03-31T11:35:40;3.20;;;2.90;;
21334;SDS011;10826;52.536;13.432;2023-03-31T11:41:51;2.87;;;1.80;;
21334;SDS011;10826;52.536;13.432;2023-03-31T11:44:48;1.80;;;1.70;;
21334;SDS011;10826;52.536;13.432;2023-03-31T11:47:41;3.60;;;1.90;;
21334;SDS011;10826;52.536;13.432;2023-03-31T11:50:34;1.93;;;1.73;;
21334;SDS011;10826;52.536;13.432;2023-03-31T11:53:29;2.37;;;2.00;;
21334;SDS011;10826;52.536;13.432;2023-03-31T11:56:21;3.23;;;1.83;;
21334;SDS011;10826;52.536;13.432;2023-03-31T11:59:19;2.50;;;2.17;;
21334;SDS011;10826;52.536;13.432;2023-03-31T12:02:15;1.87;;;1.77;;
21334;SDS011;10826;52.536;13.432;2023-03-31T12:05:08;4.13;;;1.77;;
21334;SDS011;10826;52.536;13.432;2023-03-31T12:08:07;2.00;;;1.50;;
21334;SDS011;10826;52.536;13.432;2023-03-31T12:11:09;2.13;;;1.80;;
21334;SDS011;10826;52.536;13.432;2023-03-31T12:14:20;2.97;;;1.70;;
21334;SDS011;10826;52.536;13.432;2023-03-31T12:17:19;5.10;;;1.90;;
21334;SDS011;10826;52.536;13.432;2023-03-31T12:20:13;2.77;;;1.80;;
21334;SDS011;10826;52.536;13.432;2023-03-31T12:23:11;3.50;;;2.27;;
21334;SDS011;10826;52.536;13.432;2023-03-31T12:26:11;1.87;;;1.53;;
21334;SDS011;10826;52.536;13.432;2023-03-31T12:29:42;2.37;;;1.53;;
21334;SDS011;10826;52.536;13.432;2023-03-31T12:33:02;3.40;;;1.60;;
21334;SDS011;10826;52.536;13.432;2023-03-31T12:39:33;2.63;;;1.50;;
21334;SDS011;10826;52.536;13.432;2023-03-31T12:46:20;3.60;;;1.70;;
21334;SDS011;10826;52.536;13.432;2023-03-31T12:49:32;3.27;;;2.13;;
21334;SDS011;10826;52.536;13.432;2023-03-31T12:53:03;2.30;;;1.97;;
21334;SDS011;10826;52.536;13.432;2023-03-31T12:56:00;5.13;;;2.40;;
21334;SDS011;10826;52.536;13.432;2023-03-31T12:58:47;4.37;;;2.23;;
21334;SDS011;10826;52.536;13.432;2023-03-31T13:01:33;4.23;;;2.10;;
21334;SDS011;10826;52.536;13.432;2023-03-31T13:04:19;5.90;;;2.10;;
21334;SDS011;10826;52.536;13.432;2023-03-31T13:07:40;3.27;;;2.10;;
21334;SDS011;10826;52.536;13.432;2023-03-31T13:10:26;4.20;;;2.40;;
21334;SDS011;10826;52.536;13.432;2023-03-31T13:13:17;4.83;;;2.50;;
21334;SDS011;10826;52.536;13.432;2023-03-31T13:16:02;5.77;;;2.90;;
21334;SDS011;10826;52.536;13.432;2023-03-31T13:18:50;5.20;;;3.30;;
21334;SDS011;10826;52.536;13.432;2023-03-31T13:21:58;5.67;;;3.13;;
21334;SDS011;10826;52.536;13.432;2023-03-31T13:24:47;5.73;;;3.37;;
21334;SDS011;10826;52.536;13.432;2023-03-31T13:27:33;5.13;;;3.27;;
21334;SDS011;10826;52.536;13.432;2023-03-31T13:33:27;3.80;;;3.33;;
21334;SDS011;10826;52.536;13.432;2023-03-31T13:42:52;1.13;;;1.13;;
21334;SDS011;10826;52.536;13.432;2023-03-31T13:46:29;1.50;;;0.87;;
21334;SDS011;10826;52.536;13.432;2023-03-31T14:03:20;5.67;;;2.90;;
21334;SDS011;10826;52.536;13.432;2023-03-31T14:09:23;5.57;;;3.43;;
21334;SDS011;10826;52.536;13.432;2023-03-31T14:15:22;3.77;;;3.27;;
21334;SDS011;10826;52.536;13.432;2023-03-31T14:18:09;6.57;;;3.47;;
21334;SDS011;10826;52.536;13.432;2023-03-31T14:21:17;5.40;;;3.33;;
21334;SDS011;10826;52.536;13.432;2023-03-31T14:24:25;3.10;;;2.63;;
21334;SDS011;10826;52.536;13.432;2023-03-31T14:30:52;4.40;;;2.80;;
21334;SDS011;10826;52.536;13.432;2023-03-31T14:37:29;2.00;;;1.80;;
21334;SDS011;10826;52.536;13.432;2023-03-31T14:40:16;2.23;;;1.77;;
21334;SDS011;10826;52.536;13.432;2023-03-31T14:43:03;1.93;;;1.43;;
21334;SDS011;10826;52.536;13.432;2023-03-31T14:45:59;1.67;;;1.40;;
21334;SDS011;10826;52.536;13.432;2023-03-31T14:48:51;2.53;;;1.40;;
21334;SDS011;10826;52.536;13.432;2023-03-31T14:51:41;1.23;;;1.10;;
21334;SDS011;10826;52.536;13.432;2023-03-31T14:54:33;3.00;;;1.47;;
21334;SDS011;10826;52.536;13.432;2023-03-31T14:57:24;1.30;;;1.30;;
21334;SDS011;10826;52.536;13.432;2023-03-31T15:00:25;3.10;;;1.40;;
21334;SDS011;10826;52.536;13.432;2023-03-31T15:03:24;1.27;;;1.17;;
21334;SDS011;10826;52.536;13.432;2023-03-31T15:06:11;1.77;;;0.97;;
21334;SDS011;10826;52.536;13.432;2023-03-31T15:09:00;2.33;;;1.50;;
21334;SDS011;10826;52.536;13.432;2023-03-31T15:11:52;2.33;;;1.30;;
21334;SDS011;10826;52.536;13.432;2023-03-31T15:14:50;1.70;;;1.33;;
21334;SDS011;10826;52.536;13.432;2023-03-31T15:17:41;1.30;;;1.20;;
21334;SDS011;10826;52.536;13.432;2023-03-31T15:20:31;1.17;;;1.10;;
21334;SDS011;10826;52.536;13.432;2023-03-31T15:23:23;1.90;;;1.30;;
21334;SDS011;10826;52.536;13.432;2023-03-31T15:26:12;1.80;;;1.50;;
21334;SDS011;10826;52.536;13.432;2023-03-31T15:29:04;2.30;;;1.17;;
21334;SDS011;10826;52.536;13.432;2023-03-31T15:31:57;2.77;;;1.20;;
21334;SDS011;10826;52.536;13.432;2023-03-31T15:34:52;1.70;;;1.60;;
21334;SDS011;10826;52.536;13.432;2023-03-31T15:37:40;1.87;;;1.50;;
21334;SDS011;10826;52.536;13.432;2023-03-31T15:40:29;2.00;;;1.40;;
21334;SDS011;10826;52.536;13.432;2023-03-31T15:43:28;1.60;;;1.50;;
21334;SDS011;10826;52.536;13.432;2023-03-31T15:49:26;1.43;;;1.33;;
21334;SDS011;10826;52.536;13.432;2023-03-31T15:52:30;2.37;;;1.20;;
21334;SDS011;10826;52.536;13.432;2023-03-31T15:55:39;1.87;;;1.50;;
21334;SDS011;10826;52.536;13.432;2023-03-31T15:58:46;1.47;;;1.37;;
21334;SDS011;10826;52.536;13.432;2023-03-31T16:01:47;1.70;;;1.60;;
21334;SDS011;10826;52.536;13.432;2023-03-31T16:04:35;2.73;;;1.17;;
21334;SDS011;10826;52.536;13.432;2023-03-31T16:07:25;1.63;;;1.37;;
21334;SDS011;10826;52.536;13.432;2023-03-31T16:10:18;2.07;;;1.30;;
21334;SDS011;10826;52.536;13.432;2023-03-31T16:13:07;1.03;;;1.03;;
21334;SDS011;10826;52.536;13.432;2023-03-31T16:16:04;4.23;;;1.27;;
21334;SDS011;10826;52.536;13.432;2023-03-31T16:19:03;4.43;;;1.00;;
21334;SDS011;10826;52.536;13.432;2023-03-31T16:21:56;1.67;;;0.90;;
21334;SDS011;10826;52.536;13.432;2023-03-31T16:24:46;2.77;;;0.90;;
21334;SDS011;10826;52.536;13.432;2023-03-31T16:27:36;0.70;;;0.70;;
21334;SDS011;10826;52.536;13.432;2023-03-31T16:30:40;0.60;;;0.60;;
21334;SDS011;10826;52.536;13.432;2023-03-31T16:33:29;1.10;;;0.97;;
21334;SDS011;10826;52.536;13.432;2023-03-31T16:36:39;1.90;;;0.90;;
21334;SDS011;10826;52.536;13.432;2023-03-31T16:39:35;1.43;;;1.33;;
21334;SDS011;10826;52.536;13.432;2023-03-31T16:42:21;1.97;;;1.57;;
21334;SDS011;10826;52.536;13.432;2023-03-31T16:45:08;2.27;;;1.57;;
21334;SDS011;10826;52.536;13.432;2023-03-31T16:47:54;4.10;;;2.40;;
21334;SDS011;10826;52.536;13.432;2023-03-31T16:50:41;9.30;;;4.47;;
21334;SDS011;10826;52.536;13.432;2023-03-31T16:53:29;9.77;;;4.03;;
21334;SDS011;10826;52.536;13.432;2023-03-31T16:56:18;10.70;;;4.37;;
21334;SDS011;10826;52.536;13.432;2023-03-31T16:59:08;9.97;;;4.13;;
21334;SDS011;10826;52.536;13.432;2023-03-31T17:01:54;5.60;;;3.30;;
21334;SDS011;10826;52.536;13.432;2023-03-31T17:04:40;2.67;;;2.17;;
21334;SDS011;10826;52.536;13.432;2023-03-31T17:07:26;4.43;;;3.30;;
21334;SDS011;10826;52.536;13.432;2023-03-31T17:10:13;2.27;;;2.07;;
21334;SDS011;10826;52.536;13.432;2023-03-31T17:12:59;4.37;;;1.97;;
21334;SDS011;10826;52.536;13.432;2023-03-31T17:15:45;2.20;;;2.10;;
21334;SDS011;10826;52.536;13.432;2023-03-31T17:18:31;1.67;;;1.43;;
21334;SDS011;10826;52.536;13.432;2023-03-31T17:21:17;4.23;;;2.67;;
21334;SDS011;10826;52.536;13.432;2023-03-31T17:24:07;4.27;;;3.43;;
21334;SDS011;10826;52.536;13.432;2023-03-31T17:26:53;3.33;;;2.93;;
21334;SDS011;10826;52.536;13.432;2023-03-31T17:29:39;2.77;;;1.77;;
21334;SDS011;10826;52.536;13.432;2023-03-31T17:32:25;2.83;;;2.50;;
21334;SDS011;10826;52.536;13.432;2023-03-31T17:35:11;1.20;;;1.20;;
21334;SDS011;10826;52.536;13.432;2023-03-31T17:38:04;1.80;;;1.70;;
21334;SDS011;10826;52.536;13.432;2023-03-31T17:40:50;2.17;;;2.07;;
21334;SDS011;10826;52.536;13.432;2023-03-31T17:43:43;2.63;;;2.43;;
21334;SDS011;10826;52.536;13.432;2023-03-31T17:46:31;7.33;;;4.80;;
21334;SDS011;10826;52.536;13.432;2023-03-31T17:49:19;9.27;;;7.47;;
21334;SDS011;10826;52.536;13.432;2023-03-31T17:52:05;13.93;;;9.90;;
21334;SDS011;10826;52.536;13.432;2023-03-31T17:54:51;12.50;;;9.10;;
21334;SDS011;10826;52.536;13.432;2023-03-31T17:57:38;8.70;;;7.37;;
21334;SDS011;10826;52.536;13.432;2023-03-31T18:00:25;8.23;;;6.00;;
21334;SDS011;10826;52.536;13.432;2023-03-31T18:03:11;7.00;;;5.30;;
21334;SDS011;10826;52.536;13.432;2023-03-31T18:06:01;4.70;;;4.30;;
21334;SDS011;10826;52.536;13.432;2023-03-31T18:08:54;6.13;;;5.53;;
21334;SDS011;10826;52.536;13.432;2023-03-31T18:11:41;6.23;;;5.63;;
21334;SDS011;10826;52.536;13.432;2023-03-31T18:14:27;7.10;;;5.47;;
21334;SDS011;10826;52.536;13.432;2023-03-31T18:17:13;5.00;;;4.50;;
21334;SDS011;10826;52.536;13.432;2023-03-31T18:19:59;5.70;;;5.20;;
21334;SDS011;10826;52.536;13.432;2023-03-31T18:22:47;5.63;;;5.13;;
21334;SDS011;10826;52.536;13.432;2023-03-31T18:25:33;6.23;;;5.63;;
21334;SDS011;10826;52.536;13.432;2023-03-31T18:28:20;6.23;;;5.63;;
21334;SDS011;10826;52.536;13.432;2023-03-31T18:31:06;5.57;;;5.07;;
21334;SDS011;10826;52.536;13.432;2023-03-31T18:33:53;7.53;;;6.03;;
21334;SDS011;10826;52.536;13.432;2023-03-31T18:36:39;6.40;;;5.67;;
21334;SDS011;10826;52.536;13.432;2023-03-31T18:39:29;6.57;;;5.97;;
21334;SDS011;10826;52.536;13.432;2023-03-31T18:42:15;7.50;;;6.77;;
21334;SDS011;10826;52.536;13.432;2023-03-31T18:45:02;6.23;;;5.60;;
21334;SDS011;10826;52.536;13.432;2023-03-31T18:47:49;9.60;;;6.10;;
21334;SDS011;10826;52.536;13.432;2023-03-31T18:50:35;8.70;;;6.57;;
21334;SDS011;10826;52.536;13.432;2023-03-31T18:53:21;8.63;;;6.77;;
21334;SDS011;10826;52.536;13.432;2023-03-31T18:56:08;7.27;;;6.67;;
21334;SDS011;10826;52.536;13.432;2023-03-31T18:58:54;7.63;;;6.93;;
21334;SDS011;10826;52.536;13.432;2023-03-31T19:01:40;7.10;;;6.40;;
21334;SDS011;10826;52.536;13.432;2023-03-31T19:04:26;7.80;;;6.30;;
21334;SDS011;10826;52.536;13.432;2023-03-31T19:07:14;7.50;;;6.90;;
21334;SDS011;10826;52.536;13.432;2023-03-31T19:10:00;8.17;;;6.73;;
21334;SDS011;10826;52.536;13.432;2023-03-31T19:12:46;8.20;;;7.40;;
21334;SDS011;10826;52.536;13.432;2023-03-31T19:15:34;8.53;;;7.63;;
21334;SDS011;10826;52.536;13.432;2023-03-31T19:18:21;12.93;;;7.57;;
21334;SDS011;10826;52.536;13.432;2023-03-31T19:21:12;9.13;;;8.27;;
21334;SDS011;10826;52.536;13.432;2023-03-31T19:23:58;14.77;;;9.90;;
21334;SDS011;10826;52.536;13.432;2023-03-31T19:26:44;12.37;;;11.10;;
21334;SDS011;10826;52.536;13.432;2023-03-31T19:29:30;12.17;;;10.97;;
21334;SDS011;10826;52.536;13.432;2023-03-31T19:32:16;15.37;;;11.57;;
21334;SDS011;10826;52.536;13.432;2023-03-31T19:35:02;16.07;;;12.07;;
21334;SDS011;10826;52.536;13.432;2023-03-31T19:37:49;18.47;;;12.53;;
21334;SDS011;10826;52.536;13.432;2023-03-31T19:40:36;14.63;;;12.50;;